PDT,Max TemperatureF,Mean TemperatureF,Min TemperatureF,Max Dew PointF,MeanDew PointF,Min DewpointF,Max Humidity, Mean Humidity, Min Humidity, Max Sea Level PressureIn, Mean Sea Level PressureIn, Min Sea Level PressureIn, Max VisibilityMiles, Mean VisibilityMiles, Min VisibilityMiles, Max Wind SpeedMPH, Mean Wind SpeedMPH, Max Gust SpeedMPH,PrecipitationIn, CloudCover, Events, WindDirDegrees
2013-3-1,55,52,48,48,47,45,90,81,74,30.29,30.26,30.23,10,10,8,31,19,44,0.05,8,Rain,148
2013-3-2,54,48,42,46,42,36,93,81,73,30.24,30.14,30.07,10,10,4,30,19,38,0.04,7,Rain,217
2013-3-3,48,40,33,39,34,29,89,75,54,30.33,30.28,30.21,10,10,10,24,15,32,0.00,4,,262
2013-3-4,51,40,30,46,33,27,89,74,52,30.33,30.18,29.97,10,10,8,13,6,,0.00,6,Rain,76
2013-3-5,52,44,37,38,33,28,89,65,44,29.96,29.85,29.76,10,10,10,9,3,,0.02,8,Rain,108
2013-3-6,43,40,37,40,37,35,93,86,79,29.91,29.72,29.62,10,8,5,12,4,,0.35,8,Rain,351
2013-3-7,46,40,33,43,38,30,93,88,76,30.13,30.06,29.92,10,7,0,12,5,,0.10,7,Fog-Rain,111
2013-3-8,48,40,33,41,36,32,98,84,61,30.27,30.17,30.12,10,8,0,9,2,,0.00,5,Fog,305
2013-3-9,46,39,32,40,36,30,97,87,70,30.52,30.42,30.28,10,6,0,9,5,,0.00,4,Fog,131
2013-3-10,44,40,35,43,39,34,95,90,85,30.51,30.48,30.45,10,9,2,6,4,,0.02,7,Rain,158
2013-3-11,51,43,35,45,39,34,95,84,65,30.47,30.36,30.12,10,9,2,18,6,31,0.03,8,Rain,100
2013-3-12,54,50,48,50,48,44,95,88,82,30.11,30.05,30.00,10,9,5,26,18,34,0.19,8,Rain,138
2013-3-13,53,50,49,50,48,46,94,88,83,30.16,30.11,30.07,10,10,7,22,14,31,0.10,8,Rain,122
2013-3-14,54,50,48,47,45,42,90,80,67,30.14,30.05,30.02,10,10,9,23,10,29,0.01,8,Rain,141
2013-3-15,59,52,46,48,46,45,93,84,67,30.22,30.17,30.13,10,10,8,13,6,21,0.00,8,Rain,157
2013-3-16,48,44,41,46,41,35,97,85,71,30.13,29.99,29.88,10,10,6,33,11,41,0.12,7,Rain,212
2013-3-17,46,44,41,37,35,33,80,71,59,30.19,30.13,29.98,10,10,10,29,24,37,0.00,5,,258
2013-3-18,48,44,39,37,34,31,89,72,52,30.27,30.17,30.09,10,10,8,29,16,34,0.05,5,Rain,236
2013-3-19,50,42,33,39,33,27,89,69,48,30.25,29.96,29.55,10,10,10,26,9,36,0.00,8,,110
2013-3-20,55,47,41,47,41,30,87,76,62,29.99,29.54,29.31,10,10,8,37,26,46,0.01,7,Rain,191
2013-3-21,46,42,39,36,33,30,79,71,60,30.22,30.14,30.03,10,10,8,30,21,39,0.00,6,Rain,261
2013-3-22,45,38,30,34,29,25,88,66,47,30.40,30.31,30.20,10,10,10,14,8,16,0.00,5,Rain,298
2013-3-23,48,40,32,31,30,26,89,71,42,30.42,30.38,30.33,10,10,10,9,7,,0.00,5,,97
2013-3-24,55,42,30,35,30,25,92,67,34,30.32,30.25,30.15,10,10,10,10,4,,0.00,5,,103
2013-3-25,55,46,37,40,34,31,86,67,43,30.15,30.06,29.97,10,10,10,9,5,,0.00,5,,14
2013-3-26,52,44,37,43,38,32,90,76,61,30.04,30.01,30.00,10,10,10,6,2,,0.00,7,,255
2013-3-27,52,46,39,45,41,38,93,81,71,30.02,29.99,29.97,10,10,10,7,2,,0.00,7,Rain,278
2013-3-28,54,46,39,45,42,38,96,85,69,30.18,30.10,30.03,10,10,8,7,3,,0.00,5,Rain,150
2013-3-29,52,41,37,45,42,36,100,97,93,30.30,30.26,30.18,10,2,0,7,4,,0.00,6,Fog,260
2013-3-30,53,44,37,50,43,38,100,96,86,30.30,30.24,30.12,10,5,0,9,2,,0.00,2,Fog,272
2013-3-31,55,46,37,50,43,36,100,87,66,30.11,30.03,29.95,10,10,6,9,3,,0.01,0,Fog,238